Sst Orleans — CFN5087 — position and weather

sailwx.info

Track history (hours):
 
Tides and Currents Weather Stations Pressure Air Temp Water Temp Dewpoint Dewpoint Depression Visibility Wind Speed Wind Dir Waves Ship Positions

Sst Orleans

Last reported at 2017-Dec-11 13:00 UTC. Time now 2017-Dec-11 13:22 UTC.
Position N 49°17' W 123°04'.

Length 29 m; draft 5.1 m.

Type: . MMSI: 316012721.

Date/timePositionNaut miles runAvg speedWind from/ knotsBaromVisibWave heightAir tempDewpointWater temp
2017-Dec-11 13:00N 49°17' W 123°04'0 0.0
2017-Dec-11 12:30N 49°17' W 123°04'0 0.0
2017-Dec-11 12:00N 49°17' W 123°04'0 0.0
2017-Dec-11 11:30N 49°17' W 123°04'0 0.0
2017-Dec-11 11:00N 49°17' W 123°04'0 0.0
2017-Dec-11 10:30N 49°17' W 123°04'0 0.0
2017-Dec-11 10:00N 49°17' W 123°04'0 0.0
2017-Dec-11 09:30N 49°17' W 123°04'0 0.0
2017-Dec-11 09:00N 49°17' W 123°04'1 1.2
2017-Dec-11 08:30N 49°17' W 123°05'1 1.9
2017-Dec-11 08:00N 49°18' W 123°05'1 2.3
2017-Dec-11 07:30N 49°17' W 123°04'0 0.0
2017-Dec-11 07:00N 49°17' W 123°04'0 0.0
2017-Dec-11 06:30N 49°17' W 123°04'0 0.0
2017-Dec-11 06:00N 49°17' W 123°04'0 0.0
2017-Dec-11 05:30N 49°17' W 123°04'0 0.0
2017-Dec-11 05:00N 49°17' W 123°04'0 0.0
2017-Dec-11 04:30N 49°17' W 123°04'0 0.0
2017-Dec-11 04:00N 49°17' W 123°04'0 0.0
2017-Dec-11 03:30N 49°17' W 123°04'0 0.0
2017-Dec-11 03:00N 49°17' W 123°04'0 0.0
2017-Dec-11 02:30N 49°17' W 123°04'0 0.0
2017-Dec-11 02:00N 49°17' W 123°04'0 0.0
2017-Dec-11 01:30N 49°17' W 123°04'0 0.0
2017-Dec-11 01:00N 49°17' W 123°04'0 0.0
2017-Dec-11 00:30N 49°17' W 123°04'0 0.0
2017-Dec-11 00:00N 49°17' W 123°04'0 0.0
2017-Dec-10 23:30N 49°17' W 123°04'0 0.0
2017-Dec-10 23:00N 49°17' W 123°04'0 0.0
2017-Dec-10 22:30N 49°17' W 123°04'3 6.3
2017-Dec-10 22:00N 49°18' W 122°59'1 2.5
2017-Dec-10 21:30N 49°17' W 122°57'0 0.0
2017-Dec-10 20:59N 49°17' W 122°57'0 0.6
2017-Dec-10 20:30N 49°18' W 122°57'3 6.9
2017-Dec-10 20:00N 49°18' W 123°02'2 3.1
2017-Dec-10 19:30N 49°18' W 123°04'3 6.4
2017-Dec-10 19:00N 49°19' W 123°09'2 4.0
2017-Dec-10 18:30N 49°18' W 123°06'2 3.5
2017-Dec-10 18:00N 49°17' W 123°04'0 0.0
2017-Dec-10 17:30N 49°17' W 123°04'0 0.0
2017-Dec-10 17:00N 49°17' W 123°04'0 0.0
2017-Dec-10 16:30N 49°17' W 123°04'0 0.0
2017-Dec-10 16:00N 49°17' W 123°04'0 0.0
2017-Dec-10 15:30N 49°17' W 123°04'0 0.0
2017-Dec-10 15:00N 49°17' W 123°04'0 0.0
2017-Dec-10 14:30N 49°17' W 123°04'0 0.0
2017-Dec-10 14:00N 49°17' W 123°04'0 0.0
2017-Dec-10 13:30N 49°17' W 123°04'0 0.0
2017-Dec-10 13:00N 49°17' W 123°04'0 0.0
2017-Dec-10 12:30N 49°17' W 123°04'0 0.0
2017-Dec-10 12:00N 49°17' W 123°04'0 0.0
2017-Dec-10 11:30N 49°17' W 123°04'0 0.0
2017-Dec-10 11:00N 49°17' W 123°04'0 0.0
2017-Dec-10 10:30N 49°17' W 123°04'0 0.0
2017-Dec-10 10:00N 49°17' W 123°04'0 0.0
2017-Dec-10 09:30N 49°17' W 123°04'0 0.0
2017-Dec-10 09:00N 49°17' W 123°04'0 0.0
2017-Dec-10 08:30N 49°17' W 123°04'0 0.0
2017-Dec-10 08:00N 49°17' W 123°04'0 0.0
2017-Dec-10 07:30N 49°17' W 123°04'0 0.0
2017-Dec-10 07:00N 49°17' W 123°04'0 0.0
2017-Dec-10 06:30N 49°17' W 123°04'0 0.0
2017-Dec-10 06:00N 49°17' W 123°04'0 0.0
2017-Dec-10 05:30N 49°17' W 123°04'0 0.0
2017-Dec-10 05:00N 49°17' W 123°04'0 0.0
2017-Dec-10 04:30N 49°17' W 123°04'0 0.0
2017-Dec-10 04:00N 49°17' W 123°04'3 5.1
2017-Dec-10 03:30N 49°19' W 123°07'0 0.2
2017-Dec-10 03:00N 49°19' W 123°07'2 3.0
2017-Dec-10 02:30N 49°18' W 123°05'3 5.3
2017-Dec-10 02:00N 49°18' W 123°01'1 2.6
2017-Dec-10 01:30N 49°18' W 122°59'0 0.8
2017-Dec-10 01:00N 49°18' W 122°59'0 0.6
2017-Dec-10 00:30N 49°18' W 122°58'3 5.8
2017-Dec-10 00:00N 49°18' W 123°03'1 1.2
2017-Dec-09 23:30N 49°17' W 123°04'0 0.0
2017-Dec-09 23:00N 49°17' W 123°04'0 0.7
2017-Dec-09 22:30N 49°17' W 123°04'1 1.2
2017-Dec-09 22:01N 49°18' W 123°05'2 3.3
2017-Dec-09 21:30N 49°19' W 123°07'1 2.7
2017-Dec-09 21:00N 49°19' W 123°09'4 7.2
2017-Dec-09 20:30N 49°18' W 123°04'0 0.6
2017-Dec-09 20:00N 49°17' W 123°04'0 0.0
2017-Dec-09 19:30N 49°17' W 123°04'2 4.0
2017-Dec-09 19:00N 49°18' W 123°07'3 5.0
2017-Dec-09 18:30N 49°19' W 123°10'2 4.0
2017-Dec-09 18:00N 49°19' W 123°07'0 0.0
2017-Dec-09 17:30N 49°19' W 123°07'2 3.4
2017-Dec-09 17:01N 49°18' W 123°05'1 1.9
2017-Dec-09 16:30N 49°17' W 123°04'0 0.0
2017-Dec-09 16:00N 49°17' W 123°04'0 0.0
2017-Dec-09 15:30N 49°17' W 123°04'0 0.0
2017-Dec-09 15:00N 49°17' W 123°04'0 0.0
2017-Dec-09 14:30N 49°17' W 123°04'0 0.0
2017-Dec-09 14:00N 49°17' W 123°04'0 0.0
2017-Dec-09 13:30N 49°17' W 123°04'0 0.0
2017-Dec-09 13:00N 49°17' W 123°04'0 0.0
2017-Dec-09 12:30N 49°17' W 123°04'0 0.0
2017-Dec-09 12:00N 49°17' W 123°04'0 0.0
2017-Dec-09 11:30N 49°17' W 123°04'0 0.0
2017-Dec-09 11:00N 49°17' W 123°04'0 0.0
2017-Dec-09 10:30N 49°17' W 123°04'0 0.0
2017-Dec-09 10:00N 49°17' W 123°04'0 0.0
2017-Dec-09 09:30N 49°17' W 123°04'1 1.6
2017-Dec-09 09:00N 49°18' W 123°03'0 0.0
2017-Dec-09 08:30N 49°18' W 123°03'0 0.3
2017-Dec-09 08:00N 49°18' W 123°03'1 1.2
2017-Dec-09 07:30N 49°18' W 123°04'1 1.4
2017-Dec-09 07:00N 49°18' W 123°03'1 1.6
2017-Dec-09 06:30N 49°17' W 123°04'0 0.0
2017-Dec-09 06:00N 49°17' W 123°04'0 0.0
2017-Dec-09 05:30N 49°17' W 123°04'4 8.7
2017-Dec-09 05:00N 49°18' W 122°57'1 2.0
2017-Dec-09 04:30N 49°18' W 122°55'2 3.1
2017-Dec-09 04:00N 49°18' W 122°53'1 1.6
2017-Dec-09 03:30N 49°17' W 122°52'0 0.0
2017-Dec-09 03:00N 49°17' W 122°52'0 0.0
2017-Dec-09 02:30N 49°17' W 122°52'0 0.4
2017-Dec-09 02:00N 49°17' W 122°52'1 1.9
2017-Dec-09 01:30N 49°18' W 122°54'2 3.3
2017-Dec-09 01:00N 49°18' W 122°56'2 4.0
2017-Dec-09 00:30N 49°18' W 122°59'3 6.3
2017-Dec-09 00:01N 49°18' W 123°04'0 0.6
2017-Dec-08 23:30N 49°17' W 123°04'0 0.0
2017-Dec-08 23:00N 49°17' W 123°04'0 0.0
2017-Dec-08 22:30N 49°17' W 123°04'0 0.0
2017-Dec-08 22:00N 49°17' W 123°04'3 5.6
2017-Dec-08 21:30N 49°19' W 123°08'611.5
2017-Dec-08 21:00N 49°18' W 123°16'611.7
2017-Dec-08 20:30N 49°12' W 123°19'711.4
2017-Dec-08 19:54N 49°05' W 123°20'411.3
2017-Dec-08 19:30N 49°02' W 123°17'611.4
2017-Dec-08 18:57N 48°57' W 123°09'511.9
2017-Dec-08 18:31N 48°54' W 123°03'611.4
2017-Dec-08 17:58N 48°48' W 122°59'510.5
2017-Dec-08 17:30N 48°45' W 123°04'611.7
2017-Dec-08 17:00N 48°43' W 123°12'4 8.5
2017-Dec-08 16:30N 48°38' W 123°14'612.0
2017-Dec-08 16:00N 48°33' W 123°12'611.7
2017-Dec-08 15:30N 48°27' W 123°09'612.0
2017-Dec-08 15:00N 48°23' W 123°16'4 8.9
2017-Dec-08 14:31N 48°22' W 123°22'2 3.7
2017-Dec-08 14:00N 48°20' W 123°24'2 4.3
2017-Dec-08 13:30N 48°21' W 123°21'5 9.5
2017-Dec-08 13:00N 48°24' W 123°15'4 7.6
2017-Dec-08 12:30N 48°27' W 123°13'510.9
2017-Dec-08 12:00N 48°33' W 123°13'510.9
2017-Dec-08 11:30N 48°38' W 123°15'510.0
2017-Dec-08 11:00N 48°43' W 123°12'712.6
2017-Dec-08 10:29N 48°46' W 123°03'5 9.6
2017-Dec-08 09:57N 48°51' W 123°04'713.5
2017-Dec-08 09:25N 48°56' W 123°12'613.1
2017-Dec-08 09:00N 48°60' W 123°18'612.7
2017-Dec-08 08:29N 49°05' W 123°24'612.7
2017-Dec-08 08:00N 49°11' W 123°22'611.8
2017-Dec-08 07:30N 49°17' W 123°21'510.7
2017-Dec-08 07:00N 49°19' W 123°13'510.8
2017-Dec-08 06:30N 49°18' W 123°05'1 2.4
2017-Dec-08 06:00N 49°17' W 123°04'0 0.0
2017-Dec-08 05:30N 49°17' W 123°04'0 0.0
2017-Dec-08 05:00N 49°17' W 123°04'0 0.0
2017-Dec-08 04:30N 49°17' W 123°04'0 0.0
2017-Dec-08 04:00N 49°17' W 123°04'0 0.0
2017-Dec-08 03:30N 49°17' W 123°04'0 0.0
2017-Dec-08 03:00N 49°17' W 123°04'0 0.0
2017-Dec-08 02:30N 49°17' W 123°04'0 0.0
2017-Dec-08 02:00N 49°17' W 123°04'2 4.9
2017-Dec-08 01:30N 49°19' W 123°07'0 0.1
2017-Dec-08 01:00N 49°19' W 123°07'2 4.9
2017-Dec-08 00:30N 49°17' W 123°04'0 0.0
2017-Dec-08 00:00N 49°17' W 123°04'0 0.0
2017-Dec-07 23:30N 49°17' W 123°04'0 0.0
2017-Dec-07 23:00N 49°17' W 123°04'0 0.0
2017-Dec-07 22:30N 49°17' W 123°04'0 0.0
2017-Dec-07 22:00N 49°17' W 123°04'0 0.0
2017-Dec-07 21:30N 49°17' W 123°04'0 0.0
2017-Dec-07 21:00N 49°17' W 123°04'0 0.0
2017-Dec-07 20:30N 49°17' W 123°04'0 0.0
2017-Dec-07 20:00N 49°17' W 123°04'0 0.0
2017-Dec-07 19:30N 49°17' W 123°04'1 1.6
2017-Dec-07 19:00N 49°18' W 123°03'0 0.4
2017-Dec-07 18:30N 49°18' W 123°03'0 0.8
2017-Dec-07 18:00N 49°18' W 123°04'2 3.2
2017-Dec-07 17:30N 49°18' W 123°01'2 4.0
2017-Dec-07 17:00N 49°18' W 122°58'1 1.6
2017-Dec-07 16:30N 49°18' W 122°57'1 1.2
2017-Dec-07 16:00N 49°18' W 122°56'0 0.1
2017-Dec-07 15:30N 49°18' W 122°56'2 4.8
2017-Dec-07 15:00N 49°18' W 122°53'0 0.9
2017-Dec-07 14:30N 49°17' W 122°52'0 0.2
2017-Dec-07 14:00N 49°17' W 122°52'2 3.1
2017-Dec-07 13:28N 49°18' W 122°54'2 3.4
2017-Dec-07 13:00N 49°18' W 122°57'3 6.3
2017-Dec-07 12:30N 49°18' W 123°01'1 3.0
2017-Dec-07 12:00N 49°17' W 123°04'0 0.0
2017-Dec-07 11:30N 49°17' W 123°04'0 0.0
2017-Dec-07 11:00N 49°17' W 123°04'0 0.0
2017-Dec-07 10:30N 49°17' W 123°04'0 0.0
2017-Dec-07 10:00N 49°17' W 123°04'0 0.0
2017-Dec-07 09:30N 49°17' W 123°04'0 0.0
2017-Dec-07 09:00N 49°17' W 123°04'0 0.0
2017-Dec-07 08:30N 49°17' W 123°04'0 0.0
2017-Dec-07 08:00N 49°17' W 123°04'0 0.0
2017-Dec-07 07:30N 49°17' W 123°04'0 0.0
2017-Dec-07 07:00N 49°17' W 123°04'0 0.0
2017-Dec-07 06:30N 49°17' W 123°04'1 1.1
2017-Dec-07 06:01N 49°18' W 123°05'2 3.7
2017-Dec-07 05:30N 49°18' W 123°07'0 0.1
2017-Dec-07 05:00N 49°19' W 123°07'2 4.9
2017-Dec-07 04:30N 49°17' W 123°04'0 0.0
2017-Dec-07 04:00N 49°17' W 123°04'0 0.0
2017-Dec-07 03:30N 49°17' W 123°04'0 0.0
2017-Dec-07 03:00N 49°17' W 123°04'0 0.0
2017-Dec-07 02:30N 49°17' W 123°04'0 0.0
2017-Dec-07 02:00N 49°17' W 123°04'0 0.0
2017-Dec-07 01:30N 49°17' W 123°04'0 0.0
2017-Dec-07 01:00N 49°17' W 123°04'1 1.1
2017-Dec-07 00:30N 49°18' W 123°05'2 3.4
2017-Dec-07 00:00N 49°18' W 123°07'0 0.0
2017-Dec-06 23:30N 49°18' W 123°07'0 0.0
2017-Dec-06 23:00N 49°18' W 123°07'1 2.3
2017-Dec-06 22:30N 49°18' W 123°05'0 0.8
2017-Dec-06 22:01N 49°17' W 123°06'0 0.4
2017-Dec-06 21:30N 49°17' W 123°06'1 1.4
2017-Dec-06 21:00N 49°18' W 123°06'  
2017-Dec-04 10:30N 49°17' W 123°04'0 0.0
2017-Dec-04 10:00N 49°17' W 123°04'0 0.0
2017-Dec-04 09:30N 49°17' W 123°04'0 0.0
2017-Dec-04 09:00N 49°17' W 123°04'0 0.0
2017-Dec-04 08:30N 49°17' W 123°04'0 0.0
2017-Dec-04 08:00N 49°17' W 123°04'0 0.0
2017-Dec-04 07:30N 49°17' W 123°04'0 0.0
2017-Dec-04 07:00N 49°17' W 123°04'0 0.0
2017-Dec-04 06:30N 49°17' W 123°04'0 0.0
2017-Dec-04 06:00N 49°17' W 123°04'0 0.0
2017-Dec-04 05:30N 49°17' W 123°04'0 0.0
2017-Dec-04 05:00N 49°17' W 123°04'0 0.0
2017-Dec-04 04:30N 49°17' W 123°04'0 0.0
2017-Dec-04 04:00N 49°17' W 123°04'0 0.0
2017-Dec-04 03:30N 49°17' W 123°04'1 1.6
2017-Dec-04 03:00N 49°18' W 123°03'0 0.0
2017-Dec-04 02:30N 49°18' W 123°03'0 0.1
2017-Dec-04 02:00N 49°18' W 123°03'0 0.8
2017-Dec-04 01:30N 49°18' W 123°04'0 0.8
2017-Dec-04 01:00N 49°18' W 123°05'1 1.7
2017-Dec-04 00:30N 49°18' W 123°03'0 0.0
2017-Dec-04 00:00N 49°18' W 123°03'1 1.6
2017-Dec-03 23:30N 49°17' W 123°04'0 0.0
2017-Dec-03 23:00N 49°17' W 123°04'0 0.0
2017-Dec-03 22:30N 49°17' W 123°04'0 0.0
2017-Dec-03 22:00N 49°17' W 123°04'0 0.0
2017-Dec-03 21:30N 49°17' W 123°04'0 0.0
2017-Dec-03 21:00N 49°17' W 123°04'0 0.0
2017-Dec-03 20:30N 49°17' W 123°04'0 0.0
2017-Dec-03 20:00N 49°17' W 123°04'0 0.0
2017-Dec-03 19:30N 49°17' W 123°04'0 0.0
2017-Dec-03 19:00N 49°17' W 123°04'0 0.0
2017-Dec-03 18:30N 49°17' W 123°04'0 0.0
2017-Dec-03 18:00N 49°17' W 123°04'0 0.0
2017-Dec-03 17:30N 49°17' W 123°04'0 0.0
2017-Dec-03 17:00N 49°17' W 123°04'0 0.0
2017-Dec-03 16:30N 49°17' W 123°04'0 0.0
2017-Dec-03 16:00N 49°17' W 123°04'0 0.0
2017-Dec-03 15:30N 49°17' W 123°04'0 0.0
2017-Dec-03 15:00N 49°17' W 123°04'0 0.0
2017-Dec-03 14:30N 49°17' W 123°04'0 0.0
2017-Dec-03 14:00N 49°17' W 123°04'0 0.0
2017-Dec-03 13:30N 49°17' W 123°04'0 0.0
2017-Dec-03 13:00N 49°17' W 123°04'0 0.0
2017-Dec-03 12:30N 49°17' W 123°04'0 0.0
2017-Dec-03 12:00N 49°17' W 123°04'0 0.0
2017-Dec-03 11:30N 49°17' W 123°04'0 0.0
2017-Dec-03 11:00N 49°17' W 123°04'0 0.0
2017-Dec-03 10:30N 49°17' W 123°04'0 0.0
2017-Dec-03 10:00N 49°17' W 123°04'0 0.0
2017-Dec-03 09:30N 49°17' W 123°04'0 0.0
2017-Dec-03 09:00N 49°17' W 123°04'0 0.0
2017-Dec-03 08:30N 49°17' W 123°04'0 0.0
2017-Dec-03 08:00N 49°17' W 123°04'0 0.0
2017-Dec-03 07:30N 49°17' W 123°04'0 0.0
2017-Dec-03 07:00N 49°17' W 123°04'0 0.0
2017-Dec-03 06:30N 49°17' W 123°04'0 0.0
2017-Dec-03 06:00N 49°17' W 123°04'0 0.0
2017-Dec-03 05:30N 49°17' W 123°04'0 0.0
2017-Dec-03 05:00N 49°17' W 123°04'0 0.0
2017-Dec-03 04:30N 49°17' W 123°04'0 0.0
2017-Dec-03 04:00N 49°17' W 123°04'0 0.0
2017-Dec-03 03:30N 49°17' W 123°04'0 0.0
2017-Dec-03 03:00N 49°17' W 123°04'0 0.0
2017-Dec-03 02:30N 49°17' W 123°04'0 0.0
2017-Dec-03 02:00N 49°17' W 123°04'0 0.0
2017-Dec-03 01:30N 49°17' W 123°04'0 0.0
2017-Dec-03 01:00N 49°17' W 123°04'0 0.0
2017-Dec-03 00:30N 49°17' W 123°04'0 0.0
2017-Dec-03 00:00N 49°17' W 123°04'0 0.0
2017-Dec-02 23:30N 49°17' W 123°04'0 0.0
2017-Dec-02 23:00N 49°17' W 123°04'0 0.0
2017-Dec-02 22:30N 49°17' W 123°04'0 0.0
2017-Dec-02 22:00N 49°17' W 123°04'0 0.0
2017-Dec-02 21:30N 49°17' W 123°04'0 0.0
2017-Dec-02 21:00N 49°17' W 123°04'0 0.0
2017-Dec-02 20:30N 49°17' W 123°04'0 0.0
2017-Dec-02 20:00N 49°17' W 123°04'0 0.0
2017-Dec-02 19:30N 49°17' W 123°04'0 0.0
2017-Dec-02 19:00N 49°17' W 123°04'0 0.0
2017-Dec-02 18:30N 49°17' W 123°04'0 0.0
2017-Dec-02 18:00N 49°17' W 123°04'0 0.0
2017-Dec-02 17:30N 49°17' W 123°04'0 0.0
2017-Dec-02 17:00N 49°17' W 123°04'0 0.0
2017-Dec-02 16:30N 49°17' W 123°04'0 0.0
2017-Dec-02 16:00N 49°17' W 123°04'0 0.0
2017-Dec-02 15:30N 49°17' W 123°04'0 0.0
2017-Dec-02 15:00N 49°17' W 123°04'0 0.0
2017-Dec-02 14:30N 49°17' W 123°04'3 5.1
2017-Dec-02 14:00N 49°19' W 123°07'0 0.7
2017-Dec-02 13:30N 49°19' W 123°08'0 0.4
2017-Dec-02 13:00N 49°19' W 123°08'0 0.7
2017-Dec-02 12:30N 49°19' W 123°07'3 5.3
2017-Dec-02 12:00N 49°17' W 123°04'0 0.0
2017-Dec-02 11:30N 49°17' W 123°04'0 0.0
2017-Dec-02 11:00N 49°17' W 123°04'1 2.7
2017-Dec-02 10:30N 49°17' W 123°06'1 2.7
2017-Dec-02 10:00N 49°17' W 123°04'0 0.0
2017-Dec-02 09:30N 49°17' W 123°04'0 0.0
2017-Dec-02 09:00N 49°17' W 123°04'0 0.0
2017-Dec-02 08:30N 49°17' W 123°04'0 0.0
2017-Dec-02 08:00N 49°17' W 123°04'0 0.0
2017-Dec-02 07:30N 49°17' W 123°04'0 0.0
2017-Dec-02 07:00N 49°17' W 123°04'0 0.0
2017-Dec-02 06:30N 49°17' W 123°04'0 0.0
2017-Dec-02 06:00N 49°17' W 123°04'0 0.0
2017-Dec-02 05:30N 49°17' W 123°04'0 0.0
2017-Dec-02 05:00N 49°17' W 123°04'0 0.0
2017-Dec-02 04:30N 49°17' W 123°04'0 0.0
2017-Dec-02 04:00N 49°17' W 123°04'0 0.0
2017-Dec-02 03:30N 49°17' W 123°04'0 0.0
2017-Dec-02 03:00N 49°17' W 123°04'0 0.0
2017-Dec-02 02:30N 49°17' W 123°04'0 0.0
2017-Dec-02 02:00N 49°17' W 123°04'0 0.0
2017-Dec-02 01:30N 49°17' W 123°04'0 0.0
2017-Dec-02 01:00N 49°17' W 123°04'0 0.0
2017-Dec-02 00:30N 49°17' W 123°04'0 0.0
2017-Dec-02 00:00N 49°17' W 123°04'0 0.0
2017-Dec-01 23:30N 49°17' W 123°04'0 0.0
2017-Dec-01 23:00N 49°17' W 123°04'0 0.0
2017-Dec-01 22:30N 49°17' W 123°04'0 0.0
2017-Dec-01 22:00N 49°17' W 123°04'0 0.0
2017-Dec-01 21:30N 49°17' W 123°04'0 0.0
2017-Dec-01 21:00N 49°17' W 123°04'0 0.0
2017-Dec-01 20:30N 49°17' W 123°04'0 0.0
2017-Dec-01 20:00N 49°17' W 123°04'0 0.0
2017-Dec-01 19:30N 49°17' W 123°04'0 0.0
2017-Dec-01 19:00N 49°17' W 123°04'0 0.0
2017-Dec-01 18:30N 49°17' W 123°04'0 0.0
2017-Dec-01 18:00N 49°17' W 123°04'0 0.0
2017-Dec-01 17:30N 49°17' W 123°04'0 0.0
2017-Dec-01 17:00N 49°17' W 123°04'0 0.0
2017-Dec-01 16:30N 49°17' W 123°04'0 0.0
2017-Dec-01 16:00N 49°17' W 123°04'0 0.0
2017-Dec-01 15:30N 49°17' W 123°04'0 0.0
2017-Dec-01 15:00N 49°17' W 123°04'0 0.0
2017-Dec-01 14:30N 49°17' W 123°04'0 0.0
2017-Dec-01 14:00N 49°17' W 123°04'0 0.0
2017-Dec-01 13:30N 49°17' W 123°04'  
Track history (hours):
 
Tides and Currents Weather Stations Pressure Air Temp Water Temp Dewpoint Dewpoint Depression Visibility Wind Speed Wind Dir Waves Ship Positions

Sst Orleans

Last reported at 2017-Dec-11 13:00 UTC. Time now 2017-Dec-11 13:22 UTC.
Position N 49°17' W 123°04'.

Length 29 m; draft 5.1 m.

Type: . MMSI: 316012721.

Date/timePositionNaut miles runAvg speedWind from/ knotsBaromVisibWave heightAir tempDewpointWater temp
2017-Dec-11 13:00N 49°17' W 123°04'0 0.0
2017-Dec-11 12:30N 49°17' W 123°04'0 0.0
2017-Dec-11 12:00N 49°17' W 123°04'0 0.0
2017-Dec-11 11:30N 49°17' W 123°04'0 0.0
2017-Dec-11 11:00N 49°17' W 123°04'0 0.0
2017-Dec-11 10:30N 49°17' W 123°04'0 0.0
2017-Dec-11 10:00N 49°17' W 123°04'0 0.0
2017-Dec-11 09:30N 49°17' W 123°04'0 0.0
2017-Dec-11 09:00N 49°17' W 123°04'1 1.2
2017-Dec-11 08:30N 49°17' W 123°05'1 1.9
2017-Dec-11 08:00N 49°18' W 123°05'1 2.3
2017-Dec-11 07:30N 49°17' W 123°04'0 0.0
2017-Dec-11 07:00N 49°17' W 123°04'0 0.0
2017-Dec-11 06:30N 49°17' W 123°04'0 0.0
2017-Dec-11 06:00N 49°17' W 123°04'0 0.0
2017-Dec-11 05:30N 49°17' W 123°04'0 0.0
2017-Dec-11 05:00N 49°17' W 123°04'0 0.0
2017-Dec-11 04:30N 49°17' W 123°04'0 0.0
2017-Dec-11 04:00N 49°17' W 123°04'0 0.0
2017-Dec-11 03:30N 49°17' W 123°04'0 0.0
2017-Dec-11 03:00N 49°17' W 123°04'0 0.0
2017-Dec-11 02:30N 49°17' W 123°04'0 0.0
2017-Dec-11 02:00N 49°17' W 123°04'0 0.0
2017-Dec-11 01:30N 49°17' W 123°04'0 0.0
2017-Dec-11 01:00N 49°17' W 123°04'0 0.0
2017-Dec-11 00:30N 49°17' W 123°04'0 0.0
2017-Dec-11 00:00N 49°17' W 123°04'0 0.0
2017-Dec-10 23:30N 49°17' W 123°04'0 0.0
2017-Dec-10 23:00N 49°17' W 123°04'0 0.0
2017-Dec-10 22:30N 49°17' W 123°04'3 6.3
2017-Dec-10 22:00N 49°18' W 122°59'1 2.5
2017-Dec-10 21:30N 49°17' W 122°57'0 0.0
2017-Dec-10 20:59N 49°17' W 122°57'0 0.6
2017-Dec-10 20:30N 49°18' W 122°57'3 6.9
2017-Dec-10 20:00N 49°18' W 123°02'2 3.1
2017-Dec-10 19:30N 49°18' W 123°04'3 6.4
2017-Dec-10 19:00N 49°19' W 123°09'2 4.0
2017-Dec-10 18:30N 49°18' W 123°06'2 3.5
2017-Dec-10 18:00N 49°17' W 123°04'0 0.0
2017-Dec-10 17:30N 49°17' W 123°04'0 0.0
2017-Dec-10 17:00N 49°17' W 123°04'0 0.0
2017-Dec-10 16:30N 49°17' W 123°04'0 0.0
2017-Dec-10 16:00N 49°17' W 123°04'0 0.0
2017-Dec-10 15:30N 49°17' W 123°04'0 0.0
2017-Dec-10 15:00N 49°17' W 123°04'0 0.0
2017-Dec-10 14:30N 49°17' W 123°04'0 0.0
2017-Dec-10 14:00N 49°17' W 123°04'0 0.0
2017-Dec-10 13:30N 49°17' W 123°04'0 0.0
2017-Dec-10 13:00N 49°17' W 123°04'0 0.0
2017-Dec-10 12:30N 49°17' W 123°04'0 0.0
2017-Dec-10 12:00N 49°17' W 123°04'0 0.0
2017-Dec-10 11:30N 49°17' W 123°04'0 0.0
2017-Dec-10 11:00N 49°17' W 123°04'0 0.0
2017-Dec-10 10:30N 49°17' W 123°04'0 0.0
2017-Dec-10 10:00N 49°17' W 123°04'0 0.0
2017-Dec-10 09:30N 49°17' W 123°04'0 0.0
2017-Dec-10 09:00N 49°17' W 123°04'0 0.0
2017-Dec-10 08:30N 49°17' W 123°04'0 0.0
2017-Dec-10 08:00N 49°17' W 123°04'0 0.0
2017-Dec-10 07:30N 49°17' W 123°04'0 0.0
2017-Dec-10 07:00N 49°17' W 123°04'0 0.0
2017-Dec-10 06:30N 49°17' W 123°04'0 0.0
2017-Dec-10 06:00N 49°17' W 123°04'0 0.0
2017-Dec-10 05:30N 49°17' W 123°04'0 0.0
2017-Dec-10 05:00N 49°17' W 123°04'0 0.0
2017-Dec-10 04:30N 49°17' W 123°04'0 0.0
2017-Dec-10 04:00N 49°17' W 123°04'3 5.1
2017-Dec-10 03:30N 49°19' W 123°07'0 0.2
2017-Dec-10 03:00N 49°19' W 123°07'2 3.0
2017-Dec-10 02:30N 49°18' W 123°05'3 5.3
2017-Dec-10 02:00N 49°18' W 123°01'1 2.6
2017-Dec-10 01:30N 49°18' W 122°59'0 0.8
2017-Dec-10 01:00N 49°18' W 122°59'0 0.6
2017-Dec-10 00:30N 49°18' W 122°58'3 5.8
2017-Dec-10 00:00N 49°18' W 123°03'1 1.2
2017-Dec-09 23:30N 49°17' W 123°04'0 0.0
2017-Dec-09 23:00N 49°17' W 123°04'0 0.7
2017-Dec-09 22:30N 49°17' W 123°04'1 1.2
2017-Dec-09 22:01N 49°18' W 123°05'2 3.3
2017-Dec-09 21:30N 49°19' W 123°07'1 2.7
2017-Dec-09 21:00N 49°19' W 123°09'4 7.2
2017-Dec-09 20:30N 49°18' W 123°04'0 0.6
2017-Dec-09 20:00N 49°17' W 123°04'0 0.0
2017-Dec-09 19:30N 49°17' W 123°04'2 4.0
2017-Dec-09 19:00N 49°18' W 123°07'3 5.0
2017-Dec-09 18:30N 49°19' W 123°10'2 4.0
2017-Dec-09 18:00N 49°19' W 123°07'0 0.0
2017-Dec-09 17:30N 49°19' W 123°07'2 3.4
2017-Dec-09 17:01N 49°18' W 123°05'1 1.9
2017-Dec-09 16:30N 49°17' W 123°04'0 0.0
2017-Dec-09 16:00N 49°17' W 123°04'0 0.0
2017-Dec-09 15:30N 49°17' W 123°04'0 0.0
2017-Dec-09 15:00N 49°17' W 123°04'0 0.0
2017-Dec-09 14:30N 49°17' W 123°04'0 0.0
2017-Dec-09 14:00N 49°17' W 123°04'0 0.0
2017-Dec-09 13:30N 49°17' W 123°04'0 0.0
2017-Dec-09 13:00N 49°17' W 123°04'0 0.0
2017-Dec-09 12:30N 49°17' W 123°04'0 0.0
2017-Dec-09 12:00N 49°17' W 123°04'0 0.0
2017-Dec-09 11:30N 49°17' W 123°04'0 0.0
2017-Dec-09 11:00N 49°17' W 123°04'0 0.0
2017-Dec-09 10:30N 49°17' W 123°04'0 0.0
2017-Dec-09 10:00N 49°17' W 123°04'0 0.0
2017-Dec-09 09:30N 49°17' W 123°04'1 1.6
2017-Dec-09 09:00N 49°18' W 123°03'0 0.0
2017-Dec-09 08:30N 49°18' W 123°03'0 0.3
2017-Dec-09 08:00N 49°18' W 123°03'1 1.2
2017-Dec-09 07:30N 49°18' W 123°04'1 1.4
2017-Dec-09 07:00N 49°18' W 123°03'1 1.6
2017-Dec-09 06:30N 49°17' W 123°04'0 0.0
2017-Dec-09 06:00N 49°17' W 123°04'0 0.0
2017-Dec-09 05:30N 49°17' W 123°04'4 8.7
2017-Dec-09 05:00N 49°18' W 122°57'1 2.0
2017-Dec-09 04:30N 49°18' W 122°55'2 3.1
2017-Dec-09 04:00N 49°18' W 122°53'1 1.6
2017-Dec-09 03:30N 49°17' W 122°52'0 0.0
2017-Dec-09 03:00N 49°17' W 122°52'0 0.0
2017-Dec-09 02:30N 49°17' W 122°52'0 0.4
2017-Dec-09 02:00N 49°17' W 122°52'1 1.9
2017-Dec-09 01:30N 49°18' W 122°54'2 3.3
2017-Dec-09 01:00N 49°18' W 122°56'2 4.0
2017-Dec-09 00:30N 49°18' W 122°59'3 6.3
2017-Dec-09 00:01N 49°18' W 123°04'0 0.6
2017-Dec-08 23:30N 49°17' W 123°04'0 0.0
2017-Dec-08 23:00N 49°17' W 123°04'0 0.0
2017-Dec-08 22:30N 49°17' W 123°04'0 0.0
2017-Dec-08 22:00N 49°17' W 123°04'3 5.6
2017-Dec-08 21:30N 49°19' W 123°08'611.5
2017-Dec-08 21:00N 49°18' W 123°16'611.7
2017-Dec-08 20:30N 49°12' W 123°19'711.4
2017-Dec-08 19:54N 49°05' W 123°20'411.3
2017-Dec-08 19:30N 49°02' W 123°17'611.4
2017-Dec-08 18:57N 48°57' W 123°09'511.9
2017-Dec-08 18:31N 48°54' W 123°03'611.4
2017-Dec-08 17:58N 48°48' W 122°59'510.5
2017-Dec-08 17:30N 48°45' W 123°04'611.7
2017-Dec-08 17:00N 48°43' W 123°12'4 8.5
2017-Dec-08 16:30N 48°38' W 123°14'612.0
2017-Dec-08 16:00N 48°33' W 123°12'611.7
2017-Dec-08 15:30N 48°27' W 123°09'612.0
2017-Dec-08 15:00N 48°23' W 123°16'4 8.9
2017-Dec-08 14:31N 48°22' W 123°22'2 3.7
2017-Dec-08 14:00N 48°20' W 123°24'2 4.3
2017-Dec-08 13:30N 48°21' W 123°21'5 9.5
2017-Dec-08 13:00N 48°24' W 123°15'4 7.6
2017-Dec-08 12:30N 48°27' W 123°13'510.9
2017-Dec-08 12:00N 48°33' W 123°13'510.9
2017-Dec-08 11:30N 48°38' W 123°15'510.0
2017-Dec-08 11:00N 48°43' W 123°12'712.6
2017-Dec-08 10:29N 48°46' W 123°03'5 9.6
2017-Dec-08 09:57N 48°51' W 123°04'713.5
2017-Dec-08 09:25N 48°56' W 123°12'613.1
2017-Dec-08 09:00N 48°60' W 123°18'612.7
2017-Dec-08 08:29N 49°05' W 123°24'612.7
2017-Dec-08 08:00N 49°11' W 123°22'611.8
2017-Dec-08 07:30N 49°17' W 123°21'510.7
2017-Dec-08 07:00N 49°19' W 123°13'510.8
2017-Dec-08 06:30N 49°18' W 123°05'1 2.4
2017-Dec-08 06:00N 49°17' W 123°04'0 0.0
2017-Dec-08 05:30N 49°17' W 123°04'0 0.0
2017-Dec-08 05:00N 49°17' W 123°04'0 0.0
2017-Dec-08 04:30N 49°17' W 123°04'0 0.0
2017-Dec-08 04:00N 49°17' W 123°04'0 0.0
2017-Dec-08 03:30N 49°17' W 123°04'0 0.0
2017-Dec-08 03:00N 49°17' W 123°04'0 0.0
2017-Dec-08 02:30N 49°17' W 123°04'0 0.0
2017-Dec-08 02:00N 49°17' W 123°04'2 4.9
2017-Dec-08 01:30N 49°19' W 123°07'0 0.1
2017-Dec-08 01:00N 49°19' W 123°07'2 4.9
2017-Dec-08 00:30N 49°17' W 123°04'0 0.0
2017-Dec-08 00:00N 49°17' W 123°04'0 0.0
2017-Dec-07 23:30N 49°17' W 123°04'0 0.0
2017-Dec-07 23:00N 49°17' W 123°04'0 0.0
2017-Dec-07 22:30N 49°17' W 123°04'0 0.0
2017-Dec-07 22:00N 49°17' W 123°04'0 0.0
2017-Dec-07 21:30N 49°17' W 123°04'0 0.0
2017-Dec-07 21:00N 49°17' W 123°04'0 0.0
2017-Dec-07 20:30N 49°17' W 123°04'0 0.0
2017-Dec-07 20:00N 49°17' W 123°04'0 0.0
2017-Dec-07 19:30N 49°17' W 123°04'1 1.6
2017-Dec-07 19:00N 49°18' W 123°03'0 0.4
2017-Dec-07 18:30N 49°18' W 123°03'0 0.8
2017-Dec-07 18:00N 49°18' W 123°04'2 3.2
2017-Dec-07 17:30N 49°18' W 123°01'2 4.0
2017-Dec-07 17:00N 49°18' W 122°58'1 1.6
2017-Dec-07 16:30N 49°18' W 122°57'1 1.2
2017-Dec-07 16:00N 49°18' W 122°56'0 0.1
2017-Dec-07 15:30N 49°18' W 122°56'2 4.8
2017-Dec-07 15:00N 49°18' W 122°53'0 0.9
2017-Dec-07 14:30N 49°17' W 122°52'0 0.2
2017-Dec-07 14:00N 49°17' W 122°52'2 3.1
2017-Dec-07 13:28N 49°18' W 122°54'2 3.4
2017-Dec-07 13:00N 49°18' W 122°57'3 6.3
2017-Dec-07 12:30N 49°18' W 123°01'1 3.0
2017-Dec-07 12:00N 49°17' W 123°04'0 0.0
2017-Dec-07 11:30N 49°17' W 123°04'0 0.0
2017-Dec-07 11:00N 49°17' W 123°04'0 0.0
2017-Dec-07 10:30N 49°17' W 123°04'0 0.0
2017-Dec-07 10:00N 49°17' W 123°04'0 0.0
2017-Dec-07 09:30N 49°17' W 123°04'0 0.0
2017-Dec-07 09:00N 49°17' W 123°04'0 0.0
2017-Dec-07 08:30N 49°17' W 123°04'0 0.0
2017-Dec-07 08:00N 49°17' W 123°04'0 0.0
2017-Dec-07 07:30N 49°17' W 123°04'0 0.0
2017-Dec-07 07:00N 49°17' W 123°04'0 0.0
2017-Dec-07 06:30N 49°17' W 123°04'1 1.1
2017-Dec-07 06:01N 49°18' W 123°05'2 3.7
2017-Dec-07 05:30N 49°18' W 123°07'0 0.1
2017-Dec-07 05:00N 49°19' W 123°07'2 4.9
2017-Dec-07 04:30N 49°17' W 123°04'0 0.0
2017-Dec-07 04:00N 49°17' W 123°04'0 0.0
2017-Dec-07 03:30N 49°17' W 123°04'0 0.0
2017-Dec-07 03:00N 49°17' W 123°04'0 0.0
2017-Dec-07 02:30N 49°17' W 123°04'0 0.0
2017-Dec-07 02:00N 49°17' W 123°04'0 0.0
2017-Dec-07 01:30N 49°17' W 123°04'0 0.0
2017-Dec-07 01:00N 49°17' W 123°04'1 1.1
2017-Dec-07 00:30N 49°18' W 123°05'2 3.4
2017-Dec-07 00:00N 49°18' W 123°07'0 0.0
2017-Dec-06 23:30N 49°18' W 123°07'0 0.0
2017-Dec-06 23:00N 49°18' W 123°07'1 2.3
2017-Dec-06 22:30N 49°18' W 123°05'0 0.8
2017-Dec-06 22:01N 49°17' W 123°06'0 0.4
2017-Dec-06 21:30N 49°17' W 123°06'1 1.4
2017-Dec-06 21:00N 49°18' W 123°06'  
2017-Dec-04 10:30N 49°17' W 123°04'0 0.0
2017-Dec-04 10:00N 49°17' W 123°04'0 0.0
2017-Dec-04 09:30N 49°17' W 123°04'0 0.0
2017-Dec-04 09:00N 49°17' W 123°04'0 0.0
2017-Dec-04 08:30N 49°17' W 123°04'0 0.0
2017-Dec-04 08:00N 49°17' W 123°04'0 0.0
2017-Dec-04 07:30N 49°17' W 123°04'0 0.0
2017-Dec-04 07:00N 49°17' W 123°04'0 0.0
2017-Dec-04 06:30N 49°17' W 123°04'0 0.0
2017-Dec-04 06:00N 49°17' W 123°04'0 0.0
2017-Dec-04 05:30N 49°17' W 123°04'0 0.0
2017-Dec-04 05:00N 49°17' W 123°04'0 0.0
2017-Dec-04 04:30N 49°17' W 123°04'0 0.0
2017-Dec-04 04:00N 49°17' W 123°04'0 0.0
2017-Dec-04 03:30N 49°17' W 123°04'1 1.6
2017-Dec-04 03:00N 49°18' W 123°03'0 0.0
2017-Dec-04 02:30N 49°18' W 123°03'0 0.1
2017-Dec-04 02:00N 49°18' W 123°03'0 0.8
2017-Dec-04 01:30N 49°18' W 123°04'0 0.8
2017-Dec-04 01:00N 49°18' W 123°05'1 1.7
2017-Dec-04 00:30N 49°18' W 123°03'0 0.0
2017-Dec-04 00:00N 49°18' W 123°03'1 1.6
2017-Dec-03 23:30N 49°17' W 123°04'0 0.0
2017-Dec-03 23:00N 49°17' W 123°04'0 0.0
2017-Dec-03 22:30N 49°17' W 123°04'0 0.0
2017-Dec-03 22:00N 49°17' W 123°04'0 0.0
2017-Dec-03 21:30N 49°17' W 123°04'0 0.0
2017-Dec-03 21:00N 49°17' W 123°04'0 0.0
2017-Dec-03 20:30N 49°17' W 123°04'0 0.0
2017-Dec-03 20:00N 49°17' W 123°04'0 0.0
2017-Dec-03 19:30N 49°17' W 123°04'0 0.0
2017-Dec-03 19:00N 49°17' W 123°04'0 0.0
2017-Dec-03 18:30N 49°17' W 123°04'0 0.0
2017-Dec-03 18:00N 49°17' W 123°04'0 0.0
2017-Dec-03 17:30N 49°17' W 123°04'0 0.0
2017-Dec-03 17:00N 49°17' W 123°04'0 0.0
2017-Dec-03 16:30N 49°17' W 123°04'0 0.0
2017-Dec-03 16:00N 49°17' W 123°04'0 0.0
2017-Dec-03 15:30N 49°17' W 123°04'0 0.0
2017-Dec-03 15:00N 49°17' W 123°04'0 0.0
2017-Dec-03 14:30N 49°17' W 123°04'0 0.0
2017-Dec-03 14:00N 49°17' W 123°04'0 0.0
2017-Dec-03 13:30N 49°17' W 123°04'0 0.0
2017-Dec-03 13:00N 49°17' W 123°04'0 0.0
2017-Dec-03 12:30N 49°17' W 123°04'0 0.0
2017-Dec-03 12:00N 49°17' W 123°04'0 0.0
2017-Dec-03 11:30N 49°17' W 123°04'0 0.0
2017-Dec-03 11:00N 49°17' W 123°04'0 0.0
2017-Dec-03 10:30N 49°17' W 123°04'0 0.0
2017-Dec-03 10:00N 49°17' W 123°04'0 0.0
2017-Dec-03 09:30N 49°17' W 123°04'0 0.0
2017-Dec-03 09:00N 49°17' W 123°04'0 0.0
2017-Dec-03 08:30N 49°17' W 123°04'0 0.0
2017-Dec-03 08:00N 49°17' W 123°04'0 0.0
2017-Dec-03 07:30N 49°17' W 123°04'0 0.0
2017-Dec-03 07:00N 49°17' W 123°04'0 0.0
2017-Dec-03 06:30N 49°17' W 123°04'0 0.0
2017-Dec-03 06:00N 49°17' W 123°04'0 0.0
2017-Dec-03 05:30N 49°17' W 123°04'0 0.0
2017-Dec-03 05:00N 49°17' W 123°04'0 0.0
2017-Dec-03 04:30N 49°17' W 123°04'0 0.0
2017-Dec-03 04:00N 49°17' W 123°04'0 0.0
2017-Dec-03 03:30N 49°17' W 123°04'0 0.0
2017-Dec-03 03:00N 49°17' W 123°04'0 0.0
2017-Dec-03 02:30N 49°17' W 123°04'0 0.0
2017-Dec-03 02:00N 49°17' W 123°04'0 0.0
2017-Dec-03 01:30N 49°17' W 123°04'0 0.0
2017-Dec-03 01:00N 49°17' W 123°04'0 0.0
2017-Dec-03 00:30N 49°17' W 123°04'0 0.0
2017-Dec-03 00:00N 49°17' W 123°04'0 0.0
2017-Dec-02 23:30N 49°17' W 123°04'0 0.0
2017-Dec-02 23:00N 49°17' W 123°04'0 0.0
2017-Dec-02 22:30N 49°17' W 123°04'0 0.0
2017-Dec-02 22:00N 49°17' W 123°04'0 0.0
2017-Dec-02 21:30N 49°17' W 123°04'0 0.0
2017-Dec-02 21:00N 49°17' W 123°04'0 0.0
2017-Dec-02 20:30N 49°17' W 123°04'0 0.0
2017-Dec-02 20:00N 49°17' W 123°04'0 0.0
2017-Dec-02 19:30N 49°17' W 123°04'0 0.0
2017-Dec-02 19:00N 49°17' W 123°04'0 0.0
2017-Dec-02 18:30N 49°17' W 123°04'0 0.0
2017-Dec-02 18:00N 49°17' W 123°04'0 0.0
2017-Dec-02 17:30N 49°17' W 123°04'0 0.0
2017-Dec-02 17:00N 49°17' W 123°04'0 0.0
2017-Dec-02 16:30N 49°17' W 123°04'0 0.0
2017-Dec-02 16:00N 49°17' W 123°04'0 0.0
2017-Dec-02 15:30N 49°17' W 123°04'0 0.0
2017-Dec-02 15:00N 49°17' W 123°04'0 0.0
2017-Dec-02 14:30N 49°17' W 123°04'3 5.1
2017-Dec-02 14:00N 49°19' W 123°07'0 0.7
2017-Dec-02 13:30N 49°19' W 123°08'0 0.4
2017-Dec-02 13:00N 49°19' W 123°08'0 0.7
2017-Dec-02 12:30N 49°19' W 123°07'3 5.3
2017-Dec-02 12:00N 49°17' W 123°04'0 0.0
2017-Dec-02 11:30N 49°17' W 123°04'0 0.0
2017-Dec-02 11:00N 49°17' W 123°04'1 2.7
2017-Dec-02 10:30N 49°17' W 123°06'1 2.7
2017-Dec-02 10:00N 49°17' W 123°04'0 0.0
2017-Dec-02 09:30N 49°17' W 123°04'0 0.0
2017-Dec-02 09:00N 49°17' W 123°04'0 0.0
2017-Dec-02 08:30N 49°17' W 123°04'0 0.0
2017-Dec-02 08:00N 49°17' W 123°04'0 0.0
2017-Dec-02 07:30N 49°17' W 123°04'0 0.0
2017-Dec-02 07:00N 49°17' W 123°04'0 0.0
2017-Dec-02 06:30N 49°17' W 123°04'0 0.0
2017-Dec-02 06:00N 49°17' W 123°04'0 0.0
2017-Dec-02 05:30N 49°17' W 123°04'0 0.0
2017-Dec-02 05:00N 49°17' W 123°04'0 0.0
2017-Dec-02 04:30N 49°17' W 123°04'0 0.0
2017-Dec-02 04:00N 49°17' W 123°04'0 0.0
2017-Dec-02 03:30N 49°17' W 123°04'0 0.0
2017-Dec-02 03:00N 49°17' W 123°04'0 0.0
2017-Dec-02 02:30N 49°17' W 123°04'0 0.0
2017-Dec-02 02:00N 49°17' W 123°04'0 0.0
2017-Dec-02 01:30N 49°17' W 123°04'0 0.0
2017-Dec-02 01:00N 49°17' W 123°04'0 0.0
2017-Dec-02 00:30N 49°17' W 123°04'0 0.0
2017-Dec-02 00:00N 49°17' W 123°04'0 0.0
2017-Dec-01 23:30N 49°17' W 123°04'0 0.0
2017-Dec-01 23:00N 49°17' W 123°04'0 0.0
2017-Dec-01 22:30N 49°17' W 123°04'0 0.0
2017-Dec-01 22:00N 49°17' W 123°04'0 0.0
2017-Dec-01 21:30N 49°17' W 123°04'0 0.0
2017-Dec-01 21:00N 49°17' W 123°04'0 0.0
2017-Dec-01 20:30N 49°17' W 123°04'0 0.0
2017-Dec-01 20:00N 49°17' W 123°04'0 0.0
2017-Dec-01 19:30N 49°17' W 123°04'0 0.0
2017-Dec-01 19:00N 49°17' W 123°04'0 0.0
2017-Dec-01 18:30N 49°17' W 123°04'0 0.0
2017-Dec-01 18:00N 49°17' W 123°04'0 0.0
2017-Dec-01 17:30N 49°17' W 123°04'0 0.0
2017-Dec-01 17:00N 49°17' W 123°04'0 0.0
2017-Dec-01 16:30N 49°17' W 123°04'0 0.0
2017-Dec-01 16:00N 49°17' W 123°04'0 0.0
2017-Dec-01 15:30N 49°17' W 123°04'0 0.0
2017-Dec-01 15:00N 49°17' W 123°04'0 0.0
2017-Dec-01 14:30N 49°17' W 123°04'0 0.0
2017-Dec-01 14:00N 49°17' W 123°04'0 0.0
2017-Dec-01 13:30N 49°17' W 123°04'  

Dump ship's entire track history